الصفحة الرئيسية
METAR-TAF:

METAR-TAF

مطار :

مدينة كيبك, كيبك, كندا

دائرة عرض: 46-48N, خط طول: 071-23W, ارتفاع: 70 متر

مراقبة الطقس الحالي

تاريخ ووقت الإصدار 53 دقيقة قبل الساعة 09:00UTC
ريح 3 عقدة من الغرب/الشمال الغربي
درجة الحرارة 11°درجة مئوية
الرطوبة 76%
ضغط 1013 hPa
الرؤية: 32.2 كم
غيوم مفككة على ارتفاع 9500 قدم

METAR: CYQB 250900Z 30003KT 20SM BKN095 11/07 A2991 RMK AC5 SLP133

زمن: 05:53 (09:53 UTC)

توقعات

تاريخ ووقت الإصدار 4ساعات و 15 دقيقة قبل الساعة 05:38UTC
التوقعات صالحة من25 الساعة 06 UTC إلى 26 الساعة 06 UTC
ريح 3 عقدةمن اتجاهات متغيرة
الرؤية: 10 كم
غيوم قليلة على ارتفاع 9000 قدم
غيوم مفككة على ارتفاع 15000 قدم
نظرية الاحتمالات 30%
من 25 الساعة 09 UTC إلى 25 الساعة 11 UTC
الرؤية: 1.6 كم
غيوم مفككة على ارتفاع 300 قدم
غشاء
من 25 الساعة 1500 UTC
ريح 3 عقدةمن اتجاهات متغيرة
الرؤية: 10 كم
غيوم مفككة على ارتفاع 8000 قدم
من 25 الساعة 2100 UTC
ريح 6 عقدة من الشمال الغربي
الرؤية: 10 كم
سماء صافية

TAF: CYQB 250538Z 2506/2606 VRB03KT P6SM FEW090 BKN150 PROB30 2509/2511 1SM BR BKN003 FM251500 VRB03KT P6SM BKN080 FM252100 31006KT P6SM SKC RMK NXT FCST BY 251200Z

أرصاد الطقس والتوقعات من أكثر من 4000 مطار (تقارير الطقس للمطار METAR والتنبؤ بالطقس بالمطارTAF).

المحطات المتاحة هي النقط الصفراء والحمراء على الخريطة.

حرك المؤشر فوق النقطة لمعرفة اسم المحطة.

ثم انقر لمعرفة أرصاد وتوقعات الطقس.

لتغيير الخارطة: اضغط على الأزرار الخضراء مع رمز الصليب الأسود للتكبير. على الزر الأخضر مع شرطة للتصغير، أو على الأسهم الخضراء للخرائط المجاورة.


METAR-TAF: